Time;durP1;ratioP1;P1;durP2;ratioP2;P2;SDS_P1;SDS_P2;PMS_P1;PMS_P2;Temp;Humidity;BMP_temperature;BMP_pressure;BME280_temperature;BME280_humidity;BME280_pressure;Samples;Min_cycle;Max_cycle;Signal;HPM_P1;HPM_P2
2023/07/04 00:00:58;;;;;;;13.13;7.05;;;;;;;21.54;100.00;100178.97;5586366;31;33832;-69
2023/07/04 00:04:02;;;;;;;9.90;6.25;;;;;;;21.31;100.00;100166.41;5586783;31;34053;-69
2023/07/04 00:07:05;;;;;;;9.70;6.47;;;;;;;21.20;100.00;100165.41;5587315;31;34416;-68
2023/07/04 00:10:08;;;;;;;8.45;6.20;;;;;;;21.09;100.00;100168.97;5587103;31;34339;-68
2023/07/04 00:13:11;;;;;;;10.50;6.12;;;;;;;21.00;100.00;100174.97;5587210;31;33915;-69
2023/07/04 00:16:14;;;;;;;9.70;5.78;;;;;;;21.02;100.00;100184.44;5586828;31;34423;-69
2023/07/04 00:19:17;;;;;;;7.65;5.53;;;;;;;21.07;100.00;100173.75;5587364;31;33278;-69
2023/07/04 00:22:20;;;;;;;8.20;5.65;;;;;;;21.16;100.00;100171.53;5586306;31;34477;-69
2023/07/04 00:25:22;;;;;;;8.00;5.22;;;;;;;21.12;100.00;100170.34;5586949;31;34548;-69
2023/07/04 00:28:26;;;;;;;8.52;5.62;;;;;;;21.06;100.00;100164.03;5586821;31;35188;-69
2023/07/04 00:31:29;;;;;;;9.27;5.37;;;;;;;21.12;100.00;100170.34;5586783;31;33676;-69
2023/07/04 00:34:32;;;;;;;10.32;5.75;;;;;;;21.19;100.00;100160.25;5586809;31;33802;-68
2023/07/04 00:37:36;;;;;;;9.95;6.40;;;;;;;21.19;100.00;100169.19;5586684;31;34026;-69
2023/07/04 00:40:39;;;;;;;12.45;7.93;;;;;;;21.19;100.00;100171.06;5587043;31;34373;-68
2023/07/04 00:44:00;;;;;;;8.73;6.47;;;;;;;21.17;100.00;100168.59;5586300;31;34354;-69
2023/07/04 00:47:11;;;;;;;9.02;5.90;;;;;;;21.24;100.00;100168.44;5586391;31;34471;-69
2023/07/04 00:50:14;;;;;;;10.52;5.82;;;;;;;21.49;100.00;100176.19;5586618;31;33780;-68
2023/07/04 00:53:16;;;;;;;10.95;6.10;;;;;;;21.35;100.00;100175.66;5585952;31;33931;-68
2023/07/04 00:56:25;;;;;;;8.15;5.60;;;;;;;21.24;100.00;100185.47;5586428;31;33809;-68
2023/07/04 00:59:32;;;;;;;11.75;5.75;;;;;;;21.08;100.00;100175.41;5586560;31;33069;-68
2023/07/04 01:02:35;;;;;;;9.52;6.30;;;;;;;20.81;100.00;100177.88;5586673;31;34405;-69
2023/07/04 01:06:00;;;;;;;10.55;6.30;;;;;;;20.71;100.00;100171.44;5586308;31;33694;-68
2023/07/04 01:09:05;;;;;;;9.45;6.12;;;;;;;20.75;100.00;100173.44;5586315;31;33452;-68
2023/07/04 01:12:08;;;;;;;10.48;6.90;;;;;;;20.71;100.00;100164.19;5586109;31;34459;-69
2023/07/04 01:15:12;;;;;;;9.98;6.40;;;;;;;20.49;100.00;100157.78;5586436;31;34541;-68
2023/07/04 01:18:15;;;;;;;10.23;6.97;;;;;;;20.46;100.00;100160.13;5586017;31;34691;-68
2023/07/04 01:21:20;;;;;;;10.52;6.68;;;;;;;20.38;100.00;100164.03;5586025;31;33966;-68
2023/07/04 01:24:36;;;;;;;10.40;6.78;;;;;;;20.31;100.00;100166.84;5586008;31;33628;-69
2023/07/04 01:27:42;;;;;;;10.18;6.90;;;;;;;20.24;100.00;100160.72;5585860;31;33638;-68
2023/07/04 01:30:46;;;;;;;10.95;7.28;;;;;;;20.18;100.00;100166.25;5584809;31;35021;-69
2023/07/04 01:33:49;;;;;;;13.00;7.40;;;;;;;20.10;100.00;100159.31;5585717;31;34410;-69
2023/07/04 01:36:52;;;;;;;11.55;7.07;;;;;;;19.96;100.00;100153.34;5585781;31;33960;-69
2023/07/04 01:39:54;;;;;;;13.02;7.45;;;;;;;19.96;100.00;100166.81;5585633;31;33953;-69
2023/07/04 01:42:57;;;;;;;10.93;7.37;;;;;;;19.87;100.00;100167.41;5585582;31;34309;-68
2023/07/04 01:46:01;;;;;;;16.50;7.28;;;;;;;19.90;100.00;100166.94;5585553;31;33917;-68
2023/07/04 01:49:05;;;;;;;11.88;7.15;;;;;;;19.79;100.00;100171.28;5585325;31;33786;-69
2023/07/04 01:52:07;;;;;;;10.05;6.95;;;;;;;20.01;100.00;100173.38;5585376;31;33813;-69
2023/07/04 01:55:12;;;;;;;11.23;7.45;;;;;;;20.09;100.00;100176.53;5585430;31;33662;-68
2023/07/04 01:58:15;;;;;;;12.50;7.25;;;;;;;20.04;100.00;100186.37;5584403;31;34513;-68
2023/07/04 02:01:17;;;;;;;13.20;7.60;;;;;;;20.01;100.00;100184.97;5585320;31;34420;-68
2023/07/04 02:04:20;;;;;;;13.48;7.25;;;;;;;20.06;100.00;100181.56;5585709;31;34571;-68
2023/07/04 02:07:23;;;;;;;9.57;6.97;;;;;;;20.15;100.00;100188.25;5588298;31;34260;-69
2023/07/04 02:10:26;;;;;;;11.98;7.60;;;;;;;20.08;100.00;100190.25;5587905;31;33781;-69
2023/07/04 02:13:29;;;;;;;10.40;7.20;;;;;;;20.00;100.00;100199.47;5588159;31;34910;-69
2023/07/04 02:16:32;;;;;;;13.20;7.78;;;;;;;20.19;100.00;100206.37;5588036;31;33587;-69
2023/07/04 02:19:34;;;;;;;11.48;7.55;;;;;;;20.17;100.00;100213.06;5588006;31;34807;-68
2023/07/04 02:22:41;;;;;;;10.82;7.45;;;;;;;20.13;100.00;100211.91;5587051;31;33838;-69
2023/07/04 02:25:44;;;;;;;10.32;7.07;;;;;;;20.11;100.00;100214.81;5587994;31;33606;-69
2023/07/04 02:28:47;;;;;;;10.98;7.35;;;;;;;20.25;100.00;100216.22;5587032;31;33881;-69
2023/07/04 02:31:49;;;;;;;13.25;7.20;;;;;;;20.14;100.00;100218.94;5587771;31;33928;-69
2023/07/04 02:34:52;;;;;;;12.07;7.30;;;;;;;20.14;100.00;100217.03;5587837;31;33885;-69
2023/07/04 02:37:55;;;;;;;10.27;6.85;;;;;;;20.19;100.00;100227.13;5587847;31;35124;-69
2023/07/04 02:40:59;;;;;;;11.82;7.62;;;;;;;20.23;100.00;100241.78;5586852;31;33702;-68
2023/07/04 02:44:02;;;;;;;9.65;7.10;;;;;;;20.25;100.00;100258.50;5587995;31;33796;-69
2023/07/04 02:47:05;;;;;;;9.70;7.20;;;;;;;20.33;100.00;100261.69;5587671;31;33559;-69
2023/07/04 02:50:09;;;;;;;10.15;6.72;;;;;;;20.48;100.00;100260.44;5587796;31;34074;-68
2023/07/04 02:53:13;;;;;;;9.30;6.68;;;;;;;20.54;100.00;100265.69;5586791;31;34465;-69
2023/07/04 02:56:15;;;;;;;9.75;6.35;;;;;;;20.64;100.00;100270.47;5587707;31;33711;-69
2023/07/04 02:59:18;;;;;;;9.10;6.28;;;;;;;20.64;100.00;100271.31;5587466;31;34740;-69
2023/07/04 03:02:21;;;;;;;10.77;6.10;;;;;;;20.70;100.00;100274.94;5587650;31;33835;-69
2023/07/04 03:05:26;;;;;;;11.07;6.37;;;;;;;20.70;100.00;100266.84;5587060;31;33682;-69
2023/07/04 03:08:29;;;;;;;14.35;7.78;;;;;;;20.60;100.00;100269.31;5587686;31;34422;-69
2023/07/04 03:11:32;;;;;;;11.57;7.78;;;;;;;20.26;100.00;100265.53;5586887;31;33812;-67
2023/07/04 03:14:35;;;;;;;13.40;8.38;;;;;;;19.80;100.00;100266.31;5587483;31;34438;-68
2023/07/04 03:17:38;;;;;;;14.07;8.90;;;;;;;19.65;100.00;100266.75;5587598;31;33858;-68
2023/07/04 03:20:42;;;;;;;13.30;8.68;;;;;;;19.54;100.00;100278.28;5587572;31;33891;-68
2023/07/04 03:23:45;;;;;;;14.45;9.40;;;;;;;19.50;100.00;100286.00;5587491;31;34236;-68
2023/07/04 03:26:48;;;;;;;14.48;8.88;;;;;;;19.49;100.00;100276.28;5587051;31;34193;-67
2023/07/04 03:29:51;;;;;;;13.77;8.98;;;;;;;19.46;100.00;100282.09;5587374;31;33702;-70
2023/07/04 03:32:55;;;;;;;16.17;9.48;;;;;;;18.91;100.00;100289.41;5587588;31;33975;-69
2023/07/04 03:35:58;;;;;;;12.65;9.10;;;;;;;18.36;100.00;100290.34;5587265;31;33891;-70
2023/07/04 03:39:03;;;;;;;16.77;9.57;;;;;;;18.05;100.00;100292.06;5587324;31;33953;-75
2023/07/04 03:42:06;;;;;;;16.62;9.65;;;;;;;17.84;100.00;100291.59;5587386;31;34267;-72
2023/07/04 03:45:10;;;;;;;15.65;9.27;;;;;;;17.73;100.00;100295.78;5579174;31;33588;-78
2023/07/04 03:48:13;;;;;;;14.02;9.80;;;;;;;17.53;100.00;100289.66;5568807;31;34004;-82
2023/07/04 03:51:16;;;;;;;14.00;9.60;;;;;;;17.50;100.00;100290.09;5576234;31;33996;-80
2023/07/04 03:54:19;;;;;;;22.77;12.37;;;;;;;17.33;100.00;100282.56;5574519;31;34371;-80
2023/07/04 03:57:22;;;;;;;12.88;8.73;;;;;;;17.35;100.00;100280.50;5571530;31;34375;-74
2023/07/04 04:00:24;;;;;;;13.82;9.00;;;;;;;17.49;100.00;100288.47;5567459;32;34614;-77
2023/07/04 04:03:34;;;;;;;14.68;8.93;;;;;;;17.35;100.00;100275.13;5567434;32;33773;-74
2023/07/04 04:06:37;;;;;;;16.50;9.85;;;;;;;17.26;100.00;100281.78;5567424;32;34379;-75
2023/07/04 04:09:40;;;;;;;22.67;12.10;;;;;;;17.26;100.00;100287.13;5567401;32;34546;-74
2023/07/04 04:12:43;;;;;;;18.70;12.25;;;;;;;17.46;100.00;100288.91;5567301;32;34317;-75
2023/07/04 04:15:46;;;;;;;21.10;11.95;;;;;;;17.61;100.00;100287.59;5566420;32;33597;-76
2023/07/04 04:18:51;;;;;;;19.37;11.25;;;;;;;17.81;100.00;100282.91;5566511;32;33808;-75
2023/07/04 04:21:54;;;;;;;20.60;12.35;;;;;;;17.85;100.00;100279.81;5567174;32;34085;-75
2023/07/04 04:24:57;;;;;;;18.83;11.52;;;;;;;17.86;100.00;100287.66;5567319;32;33846;-75
2023/07/04 04:27:59;;;;;;;21.77;11.90;;;;;;;17.89;100.00;100281.84;5566312;32;33980;-76
2023/07/04 04:31:05;;;;;;;18.62;10.55;;;;;;;17.89;100.00;100272.97;5567182;32;34382;-76
2023/07/04 04:34:08;;;;;;;18.12;10.60;;;;;;;17.91;100.00;100285.13;5567154;32;34112;-75
2023/07/04 04:37:11;;;;;;;18.40;11.02;;;;;;;17.88;100.00;100287.41;5567073;32;34376;-76
2023/07/04 04:40:14;;;;;;;20.05;11.35;;;;;;;17.80;100.00;100296.56;5567015;32;32320;-76
2023/07/04 04:43:17;;;;;;;20.30;10.05;;;;;;;17.80;100.00;100300.06;5567320;32;33754;-75
2023/07/04 04:46:19;;;;;;;18.08;10.43;;;;;;;17.75;100.00;100307.12;5566854;32;34722;-75
2023/07/04 04:49:23;;;;;;;15.85;10.88;;;;;;;17.76;100.00;100284.63;5566695;32;34010;-77
2023/07/04 04:52:29;;;;;;;16.98;10.10;;;;;;;17.88;100.00;100287.41;5568844;31;33968;-76
2023/07/04 04:55:31;;;;;;;16.62;11.18;;;;;;;17.93;100.00;100277.69;5566867;32;34222;-76
2023/07/04 04:58:35;;;;;;;16.40;10.85;;;;;;;17.98;100.00;100274.34;5566614;32;33669;-76
2023/07/04 05:01:38;;;;;;;16.20;11.55;;;;;;;17.98;100.00;100277.84;5566695;32;33708;-77
2023/07/04 05:04:41;;;;;;;19.35;12.32;;;;;;;17.99;100.00;100284.87;5566729;32;33790;-76
2023/07/04 05:07:44;;;;;;;21.45;12.70;;;;;;;18.21;100.00;100296.03;5566381;32;33811;-76
2023/07/04 05:10:47;;;;;;;20.30;12.20;;;;;;;18.31;100.00;100312.47;5566395;32;33879;-75
2023/07/04 05:13:50;;;;;;;17.48;12.20;;;;;;;18.22;100.00;100324.53;5566421;32;34548;-76
2023/07/04 05:16:53;;;;;;;18.33;11.05;;;;;;;18.38;100.00;100333.91;5566082;32;33997;-75
2023/07/04 05:19:58;;;;;;;15.90;11.18;;;;;;;18.28;100.00;100344.31;5566529;32;33830;-75
2023/07/04 05:23:02;;;;;;;17.75;11.50;;;;;;;18.13;100.00;100340.09;5572885;31;35208;-75
2023/07/04 05:26:08;;;;;;;18.52;11.77;;;;;;;18.31;100.00;100341.19;5586209;31;33818;-75
2023/07/04 05:29:11;;;;;;;21.62;12.27;;;;;;;18.31;100.00;100336.66;5579582;31;33554;-75
2023/07/04 05:32:14;;;;;;;17.15;12.00;;;;;;;18.40;100.00;100342.56;5585467;31;33815;-75
2023/07/04 05:35:16;;;;;;;19.23;11.60;;;;;;;18.50;100.00;100338.34;5585184;31;33891;-75
2023/07/04 05:38:19;;;;;;;17.70;12.27;;;;;;;18.66;100.00;100340.50;5584952;31;35387;-76
2023/07/04 05:41:25;;;;;;;18.30;10.93;;;;;;;18.77;100.00;100330.06;5578519;31;34442;-76
2023/07/04 05:44:28;;;;;;;25.77;12.40;;;;;;;18.66;100.00;100332.44;5587767;31;33586;-76
2023/07/04 05:47:30;;;;;;;17.87;11.30;;;;;;;18.65;100.00;100349.59;5586717;31;33834;-75
2023/07/04 05:50:33;;;;;;;16.98;11.40;;;;;;;18.89;100.00;100355.16;5591426;31;33645;-75
2023/07/04 05:53:38;;;;;;;16.50;11.45;;;;;;;18.88;100.00;100354.34;5587928;31;33959;-75
2023/07/04 05:56:41;;;;;;;19.55;11.65;;;;;;;18.80;100.00;100359.19;5584069;31;33920;-75
2023/07/04 05:59:44;;;;;;;17.30;11.60;;;;;;;18.86;100.00;100352.94;5588014;31;33824;-75
2023/07/04 06:02:49;;;;;;;18.92;11.95;;;;;;;18.88;100.00;100348.16;5587901;31;34584;-75
2023/07/04 06:05:53;;;;;;;17.60;11.43;;;;;;;18.80;100.00;100354.63;5586907;31;33685;-76
2023/07/04 06:08:58;;;;;;;18.10;11.12;;;;;;;18.82;100.00;100351.75;5571702;31;34063;-74
2023/07/04 06:12:00;;;;;;;15.98;11.57;;;;;;;18.57;100.00;100362.50;5585318;31;33950;-74
2023/07/04 06:15:03;;;;;;;19.17;12.23;;;;;;;18.49;100.00;100362.75;5576185;31;33824;-74
2023/07/04 06:18:06;;;;;;;18.42;12.02;;;;;;;18.56;100.00;100356.31;5577727;31;32132;-73
2023/07/04 06:21:11;;;;;;;19.33;13.23;;;;;;;18.60;100.00;100364.75;5578583;31;33596;-75
2023/07/04 06:24:16;;;;;;;18.20;11.68;;;;;;;18.53;100.00;100364.81;5573464;31;34033;-75
2023/07/04 06:27:19;;;;;;;18.42;11.45;;;;;;;18.62;100.00;100373.41;5579662;31;33730;-75
2023/07/04 06:30:21;;;;;;;17.58;11.70;;;;;;;18.56;100.00;100364.38;5586557;31;34572;-75
2023/07/04 06:33:24;;;;;;;20.33;12.65;;;;;;;18.70;100.00;100364.25;5593826;31;34370;-74
2023/07/04 06:36:27;;;;;;;17.17;11.23;;;;;;;18.70;100.00;100380.38;5571806;31;33639;-75
2023/07/04 06:39:30;;;;;;;17.52;11.93;;;;;;;18.64;100.00;100380.19;5585828;31;34459;-74
2023/07/04 06:42:33;;;;;;;19.10;11.50;;;;;;;18.73;100.00;100385.31;5588475;31;33778;-74
2023/07/04 06:45:36;;;;;;;16.60;11.38;;;;;;;18.83;100.00;100388.34;5591731;31;34408;-74
2023/07/04 06:48:39;;;;;;;20.77;12.65;;;;;;;18.88;100.00;100391.19;5607388;31;34483;-74
2023/07/04 06:51:42;;;;;;;21.50;12.55;;;;;;;19.04;100.00;100393.28;5606547;31;33910;-75
2023/07/04 06:54:48;;;;;;;24.65;13.60;;;;;;;19.18;100.00;100391.25;5594078;31;34657;-75
2023/07/04 06:57:51;;;;;;;20.25;13.18;;;;;;;19.16;100.00;100388.00;5577704;31;33822;-75
2023/07/04 07:00:55;;;;;;;21.65;12.77;;;;;;;19.06;100.00;100394.72;5581447;31;33524;-73
2023/07/04 07:03:59;;;;;;;18.02;11.45;;;;;;;19.10;100.00;100381.62;5568062;31;34358;-73
2023/07/04 07:07:04;;;;;;;23.98;13.18;;;;;;;19.20;100.00;100381.94;5567629;32;34560;-73
2023/07/04 07:10:07;;;;;;;21.35;13.32;;;;;;;19.28;100.00;100387.00;5567747;32;34708;-73
2023/07/04 07:13:10;;;;;;;24.67;13.93;;;;;;;19.44;100.00;100385.63;5566458;32;33888;-72
2023/07/04 07:16:15;;;;;;;16.85;11.75;;;;;;;19.43;100.00;100387.47;5567687;32;33875;-72
2023/07/04 07:19:18;;;;;;;17.42;11.38;;;;;;;19.46;100.00;100392.41;5566883;32;34406;-72
2023/07/04 07:22:20;;;;;;;20.80;11.60;;;;;;;19.28;100.00;100397.78;5567547;32;33639;-71
2023/07/04 07:25:23;;;;;;;20.25;12.07;;;;;;;18.96;100.00;100396.25;5567648;32;33921;-72
2023/07/04 07:28:28;;;;;;;15.70;11.90;;;;;;;19.06;100.00;100388.50;5567717;32;34310;-71
2023/07/04 07:31:31;;;;;;;19.25;11.80;;;;;;;19.00;100.00;100390.22;5567436;32;34111;-71
2023/07/04 07:34:36;;;;;;;19.27;11.63;;;;;;;19.20;100.00;100390.00;5575490;31;33795;-71
2023/07/04 07:37:39;;;;;;;13.93;10.50;;;;;;;19.29;100.00;100399.41;5586506;31;34286;-72
2023/07/04 07:40:49;;;;;;;15.57;10.27;;;;;;;19.31;100.00;100394.66;5587445;31;34354;-72
2023/07/04 07:43:52;;;;;;;17.20;10.60;;;;;;;19.23;100.00;100394.09;5579590;31;33989;-72
2023/07/04 07:46:55;;;;;;;16.37;10.65;;;;;;;19.47;100.00;100396.75;5586995;31;33913;-71
2023/07/04 07:49:58;;;;;;;16.37;10.50;;;;;;;19.47;100.00;100410.22;5582621;31;137494;-72
2023/07/04 07:53:00;;;;;;;16.87;10.23;;;;;;;19.33;100.00;100406.00;5586887;31;34774;-71
2023/07/04 07:56:04;;;;;;;15.50;10.57;;;;;;;19.21;100.00;100404.28;5585851;31;34142;-71
2023/07/04 07:59:07;;;;;;;17.55;10.68;;;;;;;19.16;100.00;100402.25;5586979;31;33861;-71
2023/07/04 08:02:13;;;;;;;14.38;10.13;;;;;;;18.94;100.00;100401.84;5586296;31;33679;-71
2023/07/04 08:05:16;;;;;;;17.25;10.60;;;;;;;18.93;100.00;100388.63;5587346;31;35232;-71
2023/07/04 08:08:18;;;;;;;14.40;10.88;;;;;;;18.97;100.00;100395.22;5586964;31;33948;-70
2023/07/04 08:11:22;;;;;;;15.02;9.77;;;;;;;19.03;100.00;100403.19;5586726;31;33898;-71
2023/07/04 08:14:25;;;;;;;16.50;10.43;;;;;;;18.99;100.00;100396.63;5585113;31;33789;-72
2023/07/04 08:17:27;;;;;;;17.37;11.02;;;;;;;18.93;100.00;100405.56;5586788;31;33815;-71
2023/07/04 08:20:30;;;;;;;15.75;10.57;;;;;;;19.14;100.00;100409.72;5586846;31;33966;-70
2023/07/04 08:23:33;;;;;;;14.55;10.65;;;;;;;19.14;100.00;100411.59;5587190;31;33612;-71
2023/07/04 08:26:38;;;;;;;16.55;10.82;;;;;;;19.17;100.00;100421.91;5585882;31;33916;-71
2023/07/04 08:29:41;;;;;;;18.12;11.85;;;;;;;19.00;100.00;100419.78;5586332;31;34520;-71
2023/07/04 08:32:43;;;;;;;14.77;9.93;;;;;;;19.04;100.00;100420.97;5586765;31;34562;-71
2023/07/04 08:36:00;;;;;;;15.88;11.43;;;;;;;18.94;100.00;100425.22;5586465;31;34600;-72
2023/07/04 08:39:03;;;;;;;16.52;10.70;;;;;;;18.94;100.00;100409.09;5584150;31;34107;-71
2023/07/04 08:42:06;;;;;;;17.85;12.00;;;;;;;19.05;100.00;100413.75;5586605;31;33597;-71
2023/07/04 08:45:24;;;;;;;17.73;11.35;;;;;;;19.29;100.00;100417.44;5586405;31;34389;-72
2023/07/04 08:48:28;;;;;;;20.25;11.02;;;;;;;19.41;100.00;100412.97;5586656;31;33948;-71
2023/07/04 08:51:46;;;;;;;21.15;11.27;;;;;;;19.36;100.00;100407.44;5585693;31;33709;-71
2023/07/04 08:54:50;;;;;;;20.50;11.52;;;;;;;19.38;100.00;100410.69;5586203;31;33861;-72
2023/07/04 08:57:59;;;;;;;15.68;11.20;;;;;;;19.40;100.00;100412.12;5570966;31;34739;-71
2023/07/04 09:01:09;;;;;;;20.80;11.53;;;;;;;19.51;100.00;100403.31;5566764;32;33876;-71
2023/07/04 09:04:38;;;;;;;19.15;12.52;;;;;;;19.36;100.00;100404.75;5566817;32;33639;-71
2023/07/04 09:08:30;;;;;;;22.83;12.93;;;;;;;19.44;100.00;100407.97;5542599;31;33808;-72
2023/07/04 09:11:33;;;;;;;21.23;12.48;;;;;;;19.59;100.00;100412.97;5562054;32;34452;-72
2023/07/04 09:14:42;;;;;;;20.98;12.27;;;;;;;19.65;100.00;100416.63;5568214;32;33678;-72
2023/07/04 09:18:09;;;;;;;22.27;12.55;;;;;;;19.58;100.00;100418.56;5568578;32;33736;-73
2023/07/04 09:21:19;;;;;;;20.52;12.73;;;;;;;19.58;100.00;100419.41;5568651;32;34499;-71
2023/07/04 09:24:22;;;;;;;18.58;11.82;;;;;;;19.67;100.00;100422.59;5568703;32;34779;-71
2023/07/04 09:27:29;;;;;;;21.30;13.32;;;;;;;19.76;100.00;100421.25;5568623;32;33938;-71
2023/07/04 09:30:32;;;;;;;19.23;12.27;;;;;;;19.94;100.00;100421.22;5577055;31;33986;-71
2023/07/04 09:33:42;;;;;;;19.62;13.25;;;;;;;20.13;100.00;100422.81;5567639;32;34300;-71
2023/07/04 09:36:45;;;;;;;29.48;13.45;;;;;;;20.09;100.00;100426.22;5568493;32;34531;-70
2023/07/04 09:39:54;;;;;;;20.17;12.20;;;;;;;20.04;100.00;100416.13;5567719;32;34279;-71
2023/07/04 09:42:57;;;;;;;19.67;12.30;;;;;;;20.26;100.00;100424.50;5569034;32;34393;-69
2023/07/04 09:46:30;;;;;;;16.90;10.82;;;;;;;20.16;100.00;100430.44;5569716;32;33764;-69
2023/07/04 09:49:35;;;;;;;16.05;10.63;;;;;;;19.78;100.00;100432.63;5576384;31;33926;-69
2023/07/04 09:52:39;;;;;;;16.12;10.35;;;;;;;19.46;100.00;100434.66;5577994;31;33934;-71
2023/07/04 09:56:00;;;;;;;14.65;10.35;;;;;;;19.42;100.00;100433.41;5573329;32;33651;-70
2023/07/04 09:59:19;;;;;;;15.23;9.93;;;;;;;19.59;100.00;100423.75;5568385;32;34405;-71
2023/07/04 10:02:24;;;;;;;13.55;9.90;;;;;;;19.96;100.00;100428.00;5568260;32;34234;-69
2023/07/04 10:05:33;;;;;;;13.25;9.50;;;;;;;20.32;100.00;100427.13;5568500;32;33641;-69
2023/07/04 10:08:53;;;;;;;15.38;10.48;;;;;;;20.89;100.00;100426.63;5568105;32;33686;-69
2023/07/04 10:12:23;;;;;;;17.60;11.55;;;;;;;21.19;100.00;100424.66;5568227;31;33619;-68
2023/07/04 10:15:37;;;;;;;17.40;10.90;;;;;;;21.14;100.00;100413.75;5566342;32;34311;-68
2023/07/04 10:18:40;;;;;;;14.27;10.20;;;;;;;21.46;100.00;100414.16;5568209;32;33875;-68
2023/07/04 10:21:50;;;;;;;15.43;9.30;;;;;;;21.79;100.00;100411.59;5568113;32;33794;-69
2023/07/04 10:24:54;;;;;;;15.10;9.68;;;;;;;22.26;100.00;100416.84;5567009;32;33712;-68
2023/07/04 10:28:06;;;;;;;14.43;9.40;;;;;;;23.06;100.00;100422.78;5567763;32;33798;-68
2023/07/04 10:31:14;;;;;;;14.07;9.07;;;;;;;22.83;100.00;100412.16;5567808;32;33788;-68
2023/07/04 10:34:20;;;;;;;16.52;9.73;;;;;;;23.03;100.00;100415.16;5567709;32;34891;-68
2023/07/04 10:37:29;;;;;;;20.27;10.05;;;;;;;23.02;100.00;100407.28;5569069;31;34342;-67
2023/07/04 10:40:37;;;;;;;12.32;7.90;;;;;;;22.94;100.00;100405.84;5566918;32;33780;-68
2023/07/04 10:43:45;;;;;;;10.63;6.82;;;;;;;22.46;100.00;100411.81;5567815;32;34316;-67
2023/07/04 10:47:01;;;;;;;14.70;7.43;;;;;;;22.63;100.00;100396.37;5567960;32;35510;-67
2023/07/04 10:50:16;;;;;;;12.50;7.93;;;;;;;24.10;100.00;100403.78;5573640;31;34013;-67
2023/07/04 10:53:19;;;;;;;12.45;8.20;;;;;;;23.90;100.00;100404.38;5586526;31;34392;-67
2023/07/04 10:56:27;;;;;;;10.38;7.07;;;;;;;23.62;100.00;100400.03;5587298;31;33772;-68
2023/07/04 10:59:33;;;;;;;14.10;8.00;;;;;;;23.94;100.00;100410.13;5592969;31;33499;-67
2023/07/04 11:02:41;;;;;;;11.63;7.25;;;;;;;24.43;100.00;100410.91;5606893;31;33788;-67
2023/07/04 11:05:49;;;;;;;12.30;7.95;;;;;;;25.77;100.00;100400.34;5606430;31;34720;-68
2023/07/04 11:08:52;;;;;;;18.08;8.38;;;;;;;25.42;100.00;100395.56;5607156;31;33810;-68
2023/07/04 11:12:02;;;;;;;13.62;8.20;;;;;;;25.70;100.00;100393.53;5595348;31;32012;-68
2023/07/04 11:15:18;;;;;;;13.45;7.10;;;;;;;25.92;100.00;100394.97;5585045;31;33838;-68
2023/07/04 11:18:27;;;;;;;14.20;7.15;;;;;;;28.62;98.89;100395.81;5585829;31;34065;-70
2023/07/04 11:21:30;;;;;;;10.40;6.50;;;;;;;29.02;85.28;100397.41;5586100;31;34047;-69
2023/07/04 11:24:37;;;;;;;7.57;4.93;;;;;;;29.94;78.39;100398.75;5586904;31;34792;-70
2023/07/04 11:27:40;;;;;;;7.07;4.70;;;;;;;30.65;66.54;100387.53;5586359;31;33832;-69
2023/07/04 11:30:47;;;;;;;8.90;5.50;;;;;;;31.26;61.42;100397.38;5587150;31;34097;-69
2023/07/04 11:33:53;;;;;;;7.45;4.87;;;;;;;31.92;59.50;100399.56;5581342;31;34798;-69
2023/07/04 11:36:58;;;;;;;7.47;5.00;;;;;;;32.36;56.33;100392.50;5586704;31;34111;-69
2023/07/04 11:40:16;;;;;;;6.28;4.60;;;;;;;34.48;50.02;100393.88;5588449;31;32478;-71
2023/07/04 11:43:24;;;;;;;13.15;4.45;;;;;;;34.81;49.92;100394.13;5587730;31;33864;-70
2023/07/04 11:46:29;;;;;;;8.60;4.90;;;;;;;33.55;48.66;100390.72;5587258;31;34464;-70
2023/07/04 11:49:34;;;;;;;9.63;4.62;;;;;;;33.03;50.14;100389.69;5586628;31;33369;-71
2023/07/04 11:52:39;;;;;;;9.85;4.00;;;;;;;33.55;47.67;100385.22;5586038;31;33574;-71
2023/07/04 11:55:44;;;;;;;6.35;4.20;;;;;;;29.20;58.29;100375.59;5583659;31;34741;-70
2023/07/04 11:58:46;;;;;;;6.65;4.30;;;;;;;28.90;66.29;100376.75;5565561;31;32421;-71
2023/07/04 12:01:51;;;;;;;8.15;4.80;;;;;;;27.38;80.48;100371.50;5570739;31;33997;-70
2023/07/04 12:04:55;;;;;;;10.13;4.30;;;;;;;27.33;81.86;100371.50;5568654;31;34858;-71
2023/07/04 12:08:07;;;;;;;5.90;4.35;;;;;;;26.62;88.81;100368.94;5566049;32;34039;-70
2023/07/04 12:11:26;;;;;;;4.95;3.78;;;;;;;25.87;100.00;100361.50;5566715;32;33688;-70
2023/07/04 12:14:33;;;;;;;4.78;3.72;;;;;;;26.75;82.04;100375.72;5567168;32;34369;-70
2023/07/04 12:17:44;;;;;;;7.60;3.85;;;;;;;26.98;83.76;100364.25;5566338;32;34352;-69
2023/07/04 12:20:47;;;;;;;7.43;3.80;;;;;;;27.49;85.95;100364.94;5569034;31;34432;-70
2023/07/04 12:23:50;;;;;;;6.47;3.20;;;;;;;27.35;73.38;100369.34;5566840;31;35338;-70
2023/07/04 12:26:59;;;;;;;6.55;3.47;;;;;;;27.20;69.22;100367.47;5601543;31;32681;-70
2023/07/04 12:30:02;;;;;;;6.82;3.12;;;;;;;27.29;68.00;100366.91;5585574;31;33882;-70
2023/07/04 12:33:18;;;;;;;5.05;3.00;;;;;;;26.20;74.41;100354.75;5590131;31;33897;-71
2023/07/04 12:36:28;;;;;;;5.75;3.50;;;;;;;26.17;75.02;100349.88;5586466;31;33617;-71
2023/07/04 12:39:47;;;;;;;5.70;3.42;;;;;;;26.26;71.99;100353.69;5598777;31;33939;-70
2023/07/04 12:42:51;;;;;;;5.65;3.62;;;;;;;26.29;77.52;100345.81;5597773;31;33593;-70
2023/07/04 12:45:54;;;;;;;8.25;3.50;;;;;;;26.60;77.27;100346.63;5581570;31;33859;-71
2023/07/04 12:49:00;;;;;;;8.73;3.80;;;;;;;25.62;86.53;100343.25;5602825;31;33531;-71
2023/07/04 12:52:06;;;;;;;5.70;3.50;;;;;;;25.66;80.75;100340.81;5585912;31;33778;-71
2023/07/04 12:55:40;;;;;;;5.93;3.87;;;;;;;25.48;85.75;100342.91;5584256;31;33694;-70
2023/07/04 12:58:45;;;;;;;5.25;3.42;;;;;;;25.04;93.91;100334.28;5569821;31;33966;-71
2023/07/04 13:01:48;;;;;;;5.62;3.97;;;;;;;24.60;97.03;100339.16;5584776;31;34373;-71
2023/07/04 13:04:56;;;;;;;9.35;5.72;;;;;;;25.25;100.00;100345.25;5586121;31;33893;-71
2023/07/04 13:07:59;;;;;;;8.95;5.45;;;;;;;25.32;100.00;100340.41;5572333;31;34694;-71
2023/07/04 13:11:01;;;;;;;7.12;4.93;;;;;;;25.66;100.00;100335.37;5566195;32;33931;-71
2023/07/04 13:14:07;;;;;;;11.77;5.80;;;;;;;25.89;100.00;100332.16;5589230;31;33915;-71
2023/07/04 13:17:11;;;;;;;11.35;5.07;;;;;;;25.83;100.00;100341.41;5595413;31;33780;-71
2023/07/04 13:20:16;;;;;;;11.50;5.07;;;;;;;25.85;97.57;100342.75;5586694;31;34662;-71
2023/07/04 13:23:24;;;;;;;6.70;4.05;;;;;;;26.62;89.29;100340.91;5560548;31;32818;-71
2023/07/04 13:26:33;;;;;;;7.82;4.25;;;;;;;26.53;90.50;100339.84;5586745;31;33653;-71
2023/07/04 13:29:36;;;;;;;7.32;4.30;;;;;;;26.70;84.22;100338.44;5584399;31;35157;-71
2023/07/04 13:32:41;;;;;;;7.57;4.75;;;;;;;26.74;92.17;100335.97;5585478;31;33685;-71
2023/07/04 13:35:47;;;;;;;14.95;5.28;;;;;;;26.42;87.22;100339.03;5593758;31;33836;-71
2023/07/04 13:38:52;;;;;;;11.93;5.40;;;;;;;25.72;91.96;100335.13;5585529;31;33819;-71
2023/07/04 13:42:16;;;;;;;10.35;5.00;;;;;;;25.39;97.92;100333.62;5578106;31;32179;-70
2023/07/04 13:45:19;;;;;;;15.10;5.43;;;;;;;25.77;100.00;100329.69;5587249;31;33884;-71
2023/07/04 13:48:22;;;;;;;15.43;5.00;;;;;;;25.85;94.01;100323.72;5577979;31;35082;-71
2023/07/04 13:51:26;;;;;;;10.70;5.68;;;;;;;25.93;100.00;100322.37;5573276;31;33888;-71
2023/07/04 13:54:29;;;;;;;12.30;5.78;;;;;;;25.84;95.96;100315.84;5579056;31;34098;-71
2023/07/04 13:57:32;;;;;;;15.80;8.52;;;;;;;26.02;100.00;100319.94;5581019;31;34055;-70
2023/07/04 14:00:35;;;;;;;12.35;8.23;;;;;;;25.87;100.00;100321.56;5581764;31;34002;-71
2023/07/04 14:03:58;;;;;;;13.75;8.77;;;;;;;25.82;100.00;100320.72;5587576;31;33894;-70